createdAt,value
2023-01-10T00:01:06.863Z,21.38
2023-01-10T00:04:10.095Z,22.80
2023-01-10T00:07:12.944Z,22.33
2023-01-10T00:10:15.796Z,19.73
2023-01-10T00:13:24.804Z,22.50
2023-01-10T00:16:27.286Z,20.25
2023-01-10T00:19:30.077Z,19.63
2023-01-10T00:22:32.773Z,20.43
2023-01-10T00:25:36.401Z,21.98
2023-01-10T00:28:39.588Z,19.42
2023-01-10T00:31:42.367Z,20.08
2023-01-10T00:34:45.688Z,18.48
2023-01-10T00:37:48.724Z,18.33
2023-01-10T00:40:51.271Z,23.38
2023-01-10T00:43:59.843Z,22.33
2023-01-10T00:47:02.366Z,20.90
2023-01-10T00:50:12.124Z,21.38
2023-01-10T00:53:14.691Z,23.20
2023-01-10T00:56:17.514Z,20.45
2023-01-10T00:59:20.444Z,21.45
2023-01-10T01:02:23.237Z,19.20
2023-01-10T01:05:27.260Z,22.80
2023-01-10T01:08:30.090Z,21.60
2023-01-10T01:11:32.670Z,18.98
2023-01-10T01:14:35.407Z,17.20
2023-01-10T01:17:37.928Z,20.77
2023-01-10T01:20:41.751Z,19.33
2023-01-10T01:23:44.509Z,17.97
2023-01-10T01:26:47.069Z,23.55
2023-01-10T01:29:49.793Z,19.92
2023-01-10T01:32:53.649Z,20.48
2023-01-10T01:35:56.746Z,22.67
2023-01-10T01:38:59.763Z,19.05
2023-01-10T01:42:02.593Z,20.23
2023-01-10T01:45:08.536Z,21.30
2023-01-10T01:48:22.974Z,20.77
2023-01-10T01:51:30.887Z,21.58
2023-01-10T01:54:34.673Z,17.27
2023-01-10T01:57:38.216Z,20.02
2023-01-10T02:00:41.759Z,21.88
2023-01-10T02:03:48.744Z,17.25
2023-01-10T02:06:53.738Z,20.20
2023-01-10T02:10:01.934Z,19.40
2023-01-10T02:13:07.470Z,19.95
2023-01-10T02:16:10.446Z,19.10
2023-01-10T02:19:43.374Z,21.13
2023-01-10T02:23:14.124Z,20.20
2023-01-10T02:27:03.484Z,18.90
2023-01-10T02:30:35.342Z,18.42
2023-01-10T02:33:44.028Z,18.50
2023-01-10T02:37:08.699Z,19.42
2023-01-10T02:40:22.158Z,17.52
2023-01-10T02:43:31.792Z,20.65
2023-01-10T02:46:37.279Z,17.13
2023-01-10T02:49:50.900Z,18.23
2023-01-10T02:52:53.871Z,19.25
2023-01-10T02:56:13.154Z,20.70
2023-01-10T02:59:38.396Z,18.60
2023-01-10T03:02:58.437Z,18.88
2023-01-10T03:06:16.496Z,18.00
2023-01-10T03:09:34.301Z,23.42
2023-01-10T03:12:40.270Z,17.90
2023-01-10T03:15:45.000Z,14.75
2023-01-10T03:19:08.652Z,18.23
2023-01-10T03:22:12.760Z,18.13
2023-01-10T03:25:17.481Z,18.15
2023-01-10T03:28:29.900Z,19.02
2023-01-10T03:31:45.019Z,18.10
2023-01-10T03:34:48.080Z,16.00
2023-01-10T03:37:57.240Z,17.83
2023-01-10T03:41:13.434Z,17.25
2023-01-10T03:44:44.651Z,19.83
2023-01-10T03:47:52.002Z,18.30
2023-01-10T03:50:55.891Z,18.15
2023-01-10T03:54:02.805Z,17.97
2023-01-10T03:57:06.138Z,16.92
2023-01-10T04:00:10.599Z,19.17
2023-01-10T04:03:13.613Z,17.93
2023-01-10T04:06:17.863Z,17.85
2023-01-10T04:09:21.169Z,17.92
2023-01-10T04:12:24.649Z,15.77
2023-01-10T04:15:27.387Z,18.83
2023-01-10T04:18:30.375Z,17.98
2023-01-10T04:21:32.823Z,19.13
2023-01-10T04:24:36.033Z,18.13
2023-01-10T04:27:38.427Z,19.55
2023-01-10T04:30:42.270Z,19.30
2023-01-10T04:33:45.152Z,17.40
2023-01-10T04:36:50.536Z,22.20
2023-01-10T04:39:53.443Z,20.45
2023-01-10T04:42:56.188Z,24.73
2023-01-10T04:45:59.017Z,19.80
2023-01-10T04:49:02.302Z,20.35
2023-01-10T04:52:04.840Z,19.00
2023-01-10T04:55:07.918Z,21.23
2023-01-10T04:58:10.495Z,20.48
2023-01-10T05:01:16.125Z,19.58
2023-01-10T05:04:20.779Z,22.63
2023-01-10T05:07:23.622Z,19.20
2023-01-10T05:10:26.507Z,23.70
2023-01-10T05:13:29.395Z,24.40
2023-01-10T05:16:32.049Z,21.85
2023-01-10T05:19:34.837Z,25.70
2023-01-10T05:22:37.221Z,22.65
2023-01-10T05:25:40.274Z,22.43
2023-01-10T05:28:43.449Z,21.88
2023-01-10T05:31:46.311Z,23.05
2023-01-10T05:34:49.146Z,24.57
2023-01-10T05:37:52.056Z,24.02
2023-01-10T05:40:57.520Z,24.70
2023-01-10T05:44:01.541Z,22.58
2023-01-10T05:47:04.160Z,21.70
2023-01-10T05:50:07.703Z,21.52
2023-01-10T05:53:10.411Z,22.17
2023-01-10T05:56:13.154Z,24.43
2023-01-10T05:59:27.530Z,20.13
2023-01-10T06:02:30.779Z,19.60
2023-01-10T06:05:33.492Z,18.23
2023-01-10T06:08:37.302Z,19.35
2023-01-10T06:11:40.582Z,18.65
2023-01-10T06:14:43.520Z,16.60
2023-01-10T06:17:46.107Z,16.85
2023-01-10T06:20:50.231Z,19.30
2023-01-10T06:23:52.688Z,16.05
2023-01-10T06:26:55.307Z,17.70
2023-01-10T06:29:59.649Z,16.42
2023-01-10T06:33:03.184Z,19.90
2023-01-10T06:36:05.937Z,18.23
2023-01-10T06:39:08.455Z,21.63
2023-01-10T06:42:11.369Z,18.98
2023-01-10T06:45:13.841Z,17.65
2023-01-10T06:48:16.864Z,20.63
2023-01-10T06:51:20.421Z,21.63
2023-01-10T06:54:23.271Z,18.30
2023-01-10T06:57:25.752Z,18.70
2023-01-10T07:00:30.028Z,19.35
2023-01-10T07:03:32.768Z,17.73
2023-01-10T07:06:39.522Z,20.27
2023-01-10T07:09:42.092Z,20.50
2023-01-10T07:12:45.155Z,20.08
2023-01-10T07:15:48.496Z,25.08
2023-01-10T07:18:51.280Z,20.05
2023-01-10T07:21:53.706Z,22.42
2023-01-10T07:24:56.533Z,20.20
2023-01-10T07:27:59.051Z,19.17
2023-01-10T07:31:03.434Z,22.75
2023-01-10T07:34:06.164Z,23.08
2023-01-10T07:37:09.032Z,25.87
2023-01-10T07:40:11.965Z,18.88
2023-01-10T07:43:15.343Z,21.02
2023-01-10T07:46:17.893Z,24.35
2023-01-10T07:49:20.525Z,22.73
2023-01-10T07:52:23.472Z,20.17
2023-01-10T07:55:26.192Z,16.80
2023-01-10T07:58:29.812Z,18.40
2023-01-10T08:01:33.118Z,18.17
2023-01-10T08:04:36.503Z,16.40
2023-01-10T08:07:39.196Z,16.17
2023-01-10T08:10:41.930Z,18.15
2023-01-10T08:13:45.050Z,17.83
2023-01-10T08:16:47.588Z,17.52
2023-01-10T08:19:50.157Z,18.38
2023-01-10T08:22:52.820Z,16.00
2023-01-10T08:25:58.910Z,16.88
2023-01-10T08:29:01.545Z,17.37
2023-01-10T08:32:04.126Z,18.90
2023-01-10T08:35:07.191Z,16.80
2023-01-10T08:38:10.807Z,15.77
2023-01-10T08:41:13.840Z,18.42
2023-01-10T08:44:16.718Z,17.38
2023-01-10T08:47:19.134Z,16.20
2023-01-10T08:50:22.781Z,15.05
2023-01-10T08:53:31.424Z,16.88
2023-01-10T08:56:36.865Z,15.30
2023-01-10T08:59:39.498Z,14.30
2023-01-10T09:02:43.069Z,15.40
2023-01-10T09:05:45.622Z,9.98
2023-01-10T09:08:48.188Z,9.03
2023-01-10T09:11:50.704Z,10.40
2023-01-10T09:14:54.039Z,8.27
2023-01-10T09:17:58.401Z,8.60
2023-01-10T09:21:01.255Z,8.32
2023-01-10T09:24:04.190Z,5.93
2023-01-10T09:27:07.017Z,8.38
2023-01-10T09:30:10.260Z,8.00
2023-01-10T09:33:13.758Z,7.50
2023-01-10T09:36:16.466Z,8.80
2023-01-10T09:39:19.201Z,8.03
2023-01-10T09:42:42.792Z,7.65
2023-01-10T09:45:56.605Z,9.70
2023-01-10T09:49:17.757Z,9.38
2023-01-10T09:52:25.082Z,8.10
2023-01-10T09:55:33.810Z,7.63
2023-01-10T09:58:38.771Z,6.60
2023-01-10T10:01:41.428Z,5.37
2023-01-10T10:04:49.756Z,6.22
2023-01-10T10:07:58.693Z,6.57
2023-01-10T10:11:28.423Z,9.10
2023-01-10T10:14:56.004Z,5.45
2023-01-10T10:18:14.048Z,4.18
2023-01-10T10:21:28.589Z,4.93
2023-01-10T10:25:04.754Z,5.03
2023-01-10T10:28:13.260Z,4.80
2023-01-10T10:31:27.806Z,4.32
2023-01-10T10:34:37.442Z,2.40
2023-01-10T10:37:45.931Z,3.15
2023-01-10T10:40:50.327Z,2.65
2023-01-10T10:43:54.745Z,1.47
2023-01-10T10:46:59.657Z,1.98
2023-01-10T10:50:18.686Z,2.13
2023-01-10T10:53:21.585Z,0.70
2023-01-10T10:56:26.728Z,0.90
2023-01-10T10:59:29.318Z,1.23
2023-01-10T11:02:39.389Z,1.30
2023-01-10T11:05:45.530Z,0.33
2023-01-10T11:08:52.890Z,1.60
2023-01-10T11:11:56.915Z,0.52
2023-01-10T11:15:00.155Z,0.87
2023-01-10T11:18:14.504Z,1.08
2023-01-10T11:21:20.371Z,0.77
2023-01-10T11:24:34.014Z,0.52
2023-01-10T11:27:51.571Z,1.13
2023-01-10T11:30:55.621Z,0.35
2023-01-10T11:33:59.298Z,0.75
2023-01-10T11:37:18.590Z,0.73
2023-01-10T11:40:45.776Z,1.25
2023-01-10T11:43:48.187Z,0.90
2023-01-10T11:46:54.694Z,1.20
2023-01-10T11:50:00.169Z,1.83
2023-01-10T11:53:05.016Z,0.88
2023-01-10T11:56:11.418Z,0.60
2023-01-10T11:59:17.245Z,1.55
2023-01-10T12:02:26.236Z,1.80
2023-01-10T12:05:29.259Z,2.00
2023-01-10T12:08:36.968Z,1.47
2023-01-10T12:11:39.707Z,2.17
2023-01-10T12:14:42.190Z,0.52
2023-01-10T12:17:44.666Z,3.33
2023-01-10T12:20:52.665Z,2.88
2023-01-10T12:23:58.743Z,3.53
2023-01-10T12:27:04.004Z,2.15
2023-01-10T12:30:50.299Z,1.67
2023-01-10T12:34:07.845Z,1.40
2023-01-10T12:37:22.493Z,3.22
2023-01-10T12:40:34.311Z,1.50
2023-01-10T12:44:00.288Z,1.10
2023-01-10T12:47:25.627Z,1.20
2023-01-10T12:50:37.258Z,1.83
2023-01-10T12:53:55.737Z,0.75
2023-01-10T12:57:14.448Z,1.58
2023-01-10T13:00:24.487Z,2.03
2023-01-10T13:03:33.573Z,2.30
2023-01-10T13:06:40.024Z,1.88
2023-01-10T13:09:44.304Z,2.97
2023-01-10T13:12:55.207Z,2.17
2023-01-10T13:16:29.665Z,3.78
2023-01-10T13:19:32.164Z,1.05
2023-01-10T13:22:38.352Z,1.87
2023-01-10T13:25:41.310Z,2.33
2023-01-10T13:28:58.752Z,2.42
2023-01-10T13:32:02.691Z,3.53
2023-01-10T13:35:18.201Z,2.80
2023-01-10T13:38:30.897Z,2.67
2023-01-10T13:42:17.283Z,2.50
2023-01-10T13:45:21.338Z,1.40
2023-01-10T13:48:27.074Z,1.00
2023-01-10T13:51:31.884Z,2.05
2023-01-10T13:54:35.109Z,1.93
2023-01-10T13:57:55.755Z,0.35
2023-01-10T14:01:20.443Z,1.73
2023-01-10T14:04:30.075Z,2.40
2023-01-10T14:07:51.066Z,1.48
2023-01-10T14:11:13.141Z,2.30
2023-01-10T14:14:39.797Z,1.23
2023-01-10T14:17:42.440Z,1.53
2023-01-10T14:20:55.862Z,1.67
2023-01-10T14:23:59.149Z,1.83
2023-01-10T14:27:03.350Z,1.17
2023-01-10T14:30:06.846Z,1.52
2023-01-10T14:33:20.398Z,0.57
2023-01-10T14:36:31.620Z,1.60
2023-01-10T14:39:35.529Z,0.32
2023-01-10T14:42:38.334Z,0.70
2023-01-10T14:45:48.146Z,1.40
2023-01-10T14:48:53.411Z,1.03
2023-01-10T14:52:13.362Z,2.13
2023-01-10T14:55:18.440Z,1.60
2023-01-10T14:58:22.954Z,2.43
2023-01-10T15:01:28.794Z,1.67
2023-01-10T15:04:33.799Z,2.17
2023-01-10T15:07:37.832Z,1.40
2023-01-10T15:10:43.803Z,0.70
2023-01-10T15:13:52.262Z,2.42
2023-01-10T15:17:02.205Z,3.42
2023-01-10T15:20:05.841Z,1.70
2023-01-10T15:23:14.595Z,2.33
2023-01-10T15:26:35.440Z,1.75
2023-01-10T15:29:44.610Z,1.50
2023-01-10T15:32:50.289Z,1.70
2023-01-10T15:35:53.713Z,3.35
2023-01-10T15:38:56.531Z,0.73
2023-01-10T15:42:03.810Z,1.38
2023-01-10T15:45:31.143Z,1.40
2023-01-10T15:48:36.105Z,2.95
2023-01-10T15:51:39.578Z,1.00
2023-01-10T15:54:44.436Z,2.17
2023-01-10T15:57:51.723Z,1.40
2023-01-10T16:00:56.502Z,1.13
2023-01-10T16:04:02.817Z,1.52
2023-01-10T16:07:09.006Z,0.70
2023-01-10T16:10:28.038Z,1.90
2023-01-10T16:13:33.115Z,1.55
2023-01-10T16:16:35.994Z,3.72
2023-01-10T16:19:58.470Z,2.10
2023-01-10T16:23:02.338Z,3.00
2023-01-10T16:26:06.848Z,2.83
2023-01-10T16:29:11.806Z,8.68
2023-01-10T16:32:14.872Z,13.77
2023-01-10T16:35:18.571Z,14.30
2023-01-10T16:38:22.415Z,5.93
2023-01-10T16:41:43.842Z,6.35
2023-01-10T16:44:46.377Z,3.95
2023-01-10T16:47:48.941Z,4.68
2023-01-10T16:50:51.913Z,3.40
2023-01-10T16:53:55.224Z,2.87
2023-01-10T16:56:57.839Z,4.18
2023-01-10T17:00:00.490Z,4.43
2023-01-10T17:03:06.936Z,10.60
2023-01-10T17:06:12.615Z,4.75
2023-01-10T17:09:33.167Z,5.40
2023-01-10T17:12:38.329Z,7.45
2023-01-10T17:15:40.815Z,4.85
2023-01-10T17:18:43.700Z,52.75
2023-01-10T17:21:46.944Z,18.23
2023-01-10T17:24:49.757Z,27.43
2023-01-10T17:27:52.422Z,11.25
2023-01-10T17:30:55.677Z,6.10
2023-01-10T17:33:58.336Z,2.83
2023-01-10T17:37:01.142Z,2.47
2023-01-10T17:40:05.569Z,2.60
2023-01-10T17:43:09.178Z,2.40
2023-01-10T17:46:12.699Z,2.88
2023-01-10T17:49:15.385Z,2.35
2023-01-10T17:52:18.400Z,3.92
2023-01-10T17:55:20.944Z,3.93
2023-01-10T17:58:23.529Z,3.53
2023-01-10T18:01:26.550Z,2.13
2023-01-10T18:04:30.005Z,2.13
2023-01-10T18:07:33.005Z,2.83
2023-01-10T18:10:35.541Z,3.45
2023-01-10T18:13:38.296Z,9.25
2023-01-10T18:16:40.806Z,7.57
2023-01-10T18:19:44.582Z,6.40
2023-01-10T18:23:05.671Z,11.32
2023-01-10T18:26:10.798Z,6.60
2023-01-10T18:29:13.740Z,29.65
2023-01-10T18:32:16.799Z,33.58
2023-01-10T18:35:19.735Z,38.27
2023-01-10T18:38:23.034Z,32.45
2023-01-10T18:41:25.799Z,39.83
2023-01-10T18:44:28.748Z,23.95
2023-01-10T18:47:31.642Z,15.90
2023-01-10T18:50:34.498Z,10.48
2023-01-10T18:53:37.183Z,13.65
2023-01-10T18:56:39.843Z,13.00
2023-01-10T18:59:42.611Z,16.52
2023-01-10T19:02:46.280Z,12.45
2023-01-10T19:05:49.812Z,10.03
2023-01-10T19:08:52.983Z,7.93
2023-01-10T19:11:56.127Z,7.53
2023-01-10T19:15:00.717Z,5.03
2023-01-10T19:18:03.666Z,7.88
2023-01-10T19:21:07.653Z,6.65
2023-01-10T19:24:21.819Z,6.03
2023-01-10T19:27:24.748Z,5.30
2023-01-10T19:30:28.273Z,6.90
2023-01-10T19:33:33.023Z,9.32
2023-01-10T19:36:35.694Z,6.40
2023-01-10T19:39:38.371Z,6.63
2023-01-10T19:42:41.293Z,5.47
2023-01-10T19:45:43.999Z,5.82
2023-01-10T19:48:46.856Z,6.13
2023-01-10T19:51:56.221Z,5.63
2023-01-10T19:54:58.903Z,7.70
2023-01-10T19:58:02.307Z,5.60
2023-01-10T20:01:20.600Z,8.95
2023-01-10T20:04:23.570Z,8.98
2023-01-10T20:07:26.588Z,9.13
2023-01-10T20:10:29.544Z,9.73
2023-01-10T20:13:37.565Z,14.95
2023-01-10T20:16:40.270Z,14.48
2023-01-10T20:19:42.961Z,15.30
2023-01-10T20:22:45.731Z,15.07
2023-01-10T20:26:22.234Z,18.77
2023-01-10T20:29:25.117Z,11.57
2023-01-10T20:32:28.401Z,9.35
2023-01-10T20:35:31.221Z,12.20
2023-01-10T20:38:35.550Z,13.20
2023-01-10T20:41:38.821Z,6.20
2023-01-10T20:44:41.288Z,11.27
2023-01-10T20:47:43.974Z,6.22
2023-01-10T20:50:47.106Z,5.75
2023-01-10T20:53:51.233Z,2.80
2023-01-10T20:56:53.659Z,2.63
2023-01-10T20:59:56.259Z,1.67
2023-01-10T21:02:58.925Z,2.60
2023-01-10T21:06:02.130Z,3.78
2023-01-10T21:09:05.882Z,3.23
2023-01-10T21:12:22.203Z,2.13
2023-01-10T21:15:25.556Z,3.60
2023-01-10T21:18:34.589Z,2.45
2023-01-10T21:21:38.342Z,2.75
2023-01-10T21:24:42.953Z,4.03
2023-01-10T21:27:45.464Z,7.15
2023-01-10T21:30:48.096Z,3.30
2023-01-10T21:33:50.716Z,4.25
2023-01-10T21:36:54.446Z,3.20
2023-01-10T21:39:57.186Z,2.67
2023-01-10T21:43:00.511Z,5.50
2023-01-10T21:46:03.191Z,5.25
2023-01-10T21:49:06.194Z,2.33
2023-01-10T21:52:08.680Z,2.85
2023-01-10T21:55:14.469Z,5.22
2023-01-10T21:58:17.325Z,4.38
2023-01-10T22:01:19.941Z,5.87
2023-01-10T22:04:22.661Z,4.75
2023-01-10T22:07:27.437Z,5.18
2023-01-10T22:10:30.322Z,3.03
2023-01-10T22:13:33.122Z,6.63
2023-01-10T22:16:35.598Z,2.85
2023-01-10T22:19:39.178Z,3.28
2023-01-10T22:22:41.603Z,6.65
2023-01-10T22:25:44.561Z,4.57
2023-01-10T22:28:47.139Z,4.78
2023-01-10T22:31:50.829Z,4.33
2023-01-10T22:34:58.988Z,6.07
2023-01-10T22:38:01.954Z,4.55
2023-01-10T22:41:13.650Z,3.97
2023-01-10T22:44:23.049Z,2.83
2023-01-10T22:47:25.571Z,2.38
2023-01-10T22:50:28.738Z,1.92
2023-01-10T22:53:31.794Z,4.25
2023-01-10T22:56:35.070Z,5.55
2023-01-10T22:59:37.686Z,4.10
2023-01-10T23:02:40.426Z,1.93
2023-01-10T23:05:43.079Z,3.42
2023-01-10T23:08:46.607Z,2.83
2023-01-10T23:11:49.184Z,5.20
2023-01-10T23:14:52.404Z,2.65
2023-01-10T23:17:54.794Z,2.58
2023-01-10T23:20:57.800Z,2.58
2023-01-10T23:24:00.379Z,2.95
2023-01-10T23:27:03.037Z,2.65
2023-01-10T23:30:07.793Z,3.28
2023-01-10T23:33:10.533Z,3.10
2023-01-10T23:36:13.712Z,2.88
2023-01-10T23:39:19.088Z,4.43
2023-01-10T23:42:22.174Z,2.63
2023-01-10T23:45:25.018Z,4.05
2023-01-10T23:48:27.965Z,3.90
2023-01-10T23:51:31.358Z,4.38
2023-01-10T23:54:33.801Z,4.40
2023-01-10T23:57:36.585Z,3.90
